createdAt,value
2019-02-23T00:01:15.810Z,20.40
2019-02-23T00:03:59.439Z,20.03
2019-02-23T00:06:43.238Z,20.63
2019-02-23T00:09:26.498Z,20.67
2019-02-23T00:12:09.911Z,19.87
2019-02-23T00:14:52.916Z,19.77
2019-02-23T00:17:35.412Z,20.90
2019-02-23T00:20:19.876Z,21.13
2019-02-23T00:23:03.344Z,20.73
2019-02-23T00:25:46.472Z,19.27
2019-02-23T00:28:28.310Z,21.30
2019-02-23T00:31:11.521Z,20.77
2019-02-23T00:33:54.890Z,20.07
2019-02-23T00:36:37.867Z,20.87
2019-02-23T00:39:20.609Z,20.07
2019-02-23T00:41:52.036Z,21.17
2019-02-23T00:44:35.166Z,20.33
2019-02-23T00:47:18.295Z,20.53
2019-02-23T00:49:59.914Z,21.63
2019-02-23T00:52:31.361Z,19.43
2019-02-23T00:55:02.848Z,20.27
2019-02-23T00:57:36.089Z,19.67
2019-02-23T01:00:20.638Z,20.17
2019-02-23T01:03:03.698Z,19.43
2019-02-23T01:05:47.222Z,19.70
2019-02-23T01:08:31.047Z,19.60
2019-02-23T01:11:13.867Z,20.93
2019-02-23T01:13:57.310Z,19.40
2019-02-23T01:16:38.958Z,21.00
2019-02-23T01:19:23.466Z,20.33
2019-02-23T01:22:06.624Z,20.00
2019-02-23T01:24:49.502Z,19.37
2019-02-23T01:27:38.530Z,20.50
2019-02-23T01:30:21.789Z,19.77
2019-02-23T01:33:05.316Z,20.10
2019-02-23T01:35:48.378Z,18.73
2019-02-23T01:38:32.734Z,18.17
2019-02-23T01:41:16.032Z,17.73
2019-02-23T01:44:00.587Z,17.97
2019-02-23T01:46:43.433Z,17.73
2019-02-23T01:49:26.933Z,17.80
2019-02-23T01:52:09.859Z,18.43
2019-02-23T01:54:53.124Z,18.43
2019-02-23T01:57:36.320Z,18.13
2019-02-23T02:00:19.725Z,17.77
2019-02-23T02:03:02.957Z,18.27
2019-02-23T02:05:46.315Z,18.23
2019-02-23T02:08:30.076Z,18.83
2019-02-23T02:11:13.200Z,18.67
2019-02-23T02:13:55.974Z,18.10
2019-02-23T02:16:39.170Z,18.27
2019-02-23T02:19:22.257Z,17.53
2019-02-23T02:22:06.741Z,18.17
2019-02-23T02:24:49.469Z,18.83
2019-02-23T02:27:32.229Z,18.07
2019-02-23T02:30:15.914Z,17.23
2019-02-23T02:32:59.201Z,17.23
2019-02-23T02:35:42.330Z,18.73
2019-02-23T02:38:25.913Z,18.03
2019-02-23T02:41:08.648Z,18.07
2019-02-23T02:43:52.215Z,17.70
2019-02-23T02:46:35.156Z,17.23
2019-02-23T02:49:18.225Z,18.40
2019-02-23T02:52:01.415Z,18.30
2019-02-23T02:54:44.270Z,18.43
2019-02-23T02:57:27.355Z,18.80
2019-02-23T03:00:11.157Z,17.70
2019-02-23T03:02:54.474Z,18.67
2019-02-23T03:05:37.598Z,18.13
2019-02-23T03:08:20.763Z,16.97
2019-02-23T03:11:03.686Z,19.03
2019-02-23T03:13:46.717Z,17.73
2019-02-23T03:16:29.608Z,18.37
2019-02-23T03:19:13.042Z,18.07
2019-02-23T03:21:56.041Z,18.37
2019-02-23T03:24:39.001Z,16.57
2019-02-23T03:27:22.125Z,17.20
2019-02-23T03:30:05.226Z,17.07
2019-02-23T03:32:48.311Z,18.37
2019-02-23T03:35:31.377Z,18.10
2019-02-23T03:38:13.788Z,17.50
2019-02-23T03:40:57.039Z,16.83
2019-02-23T03:43:40.572Z,17.27
2019-02-23T03:46:23.470Z,17.20
2019-02-23T03:49:06.918Z,17.33
2019-02-23T03:51:50.518Z,16.30
2019-02-23T03:54:33.363Z,17.43
2019-02-23T03:57:16.330Z,16.53
2019-02-23T03:59:59.838Z,16.27
2019-02-23T04:02:43.366Z,16.43
2019-02-23T04:05:26.667Z,16.00
2019-02-23T04:08:09.606Z,15.67
2019-02-23T04:10:52.434Z,16.00
2019-02-23T04:13:35.458Z,15.43
2019-02-23T04:16:18.426Z,15.33
2019-02-23T04:19:02.053Z,16.50
2019-02-23T04:21:45.583Z,16.70
2019-02-23T04:24:28.753Z,16.23
2019-02-23T04:27:12.376Z,16.57
2019-02-23T04:29:55.615Z,15.83
2019-02-23T04:32:37.230Z,15.83
2019-02-23T04:35:20.806Z,17.07
2019-02-23T04:38:03.811Z,16.40
2019-02-23T04:40:47.055Z,15.97
2019-02-23T04:43:30.510Z,15.83
2019-02-23T04:46:13.593Z,16.27
2019-02-23T04:48:57.189Z,15.83
2019-02-23T04:51:41.268Z,16.57
2019-02-23T04:54:24.269Z,16.67
2019-02-23T04:57:07.789Z,16.60
2019-02-23T04:59:49.316Z,17.03
2019-02-23T05:02:32.947Z,17.20
2019-02-23T05:05:15.868Z,16.13
2019-02-23T05:07:58.583Z,16.13
2019-02-23T05:10:41.482Z,16.53
2019-02-23T05:13:24.863Z,16.13
2019-02-23T05:16:08.444Z,16.30
2019-02-23T05:18:51.351Z,16.77
2019-02-23T05:21:33.781Z,17.13
2019-02-23T05:24:16.536Z,17.20
2019-02-23T05:26:59.595Z,16.87
2019-02-23T05:29:42.616Z,17.67
2019-02-23T05:32:25.587Z,17.47
2019-02-23T05:35:07.871Z,18.50
2019-02-23T05:37:50.912Z,17.73
2019-02-23T05:40:34.290Z,17.00
2019-02-23T05:43:17.004Z,18.57
2019-02-23T05:46:00.644Z,17.00
2019-02-23T05:48:43.583Z,17.27
2019-02-23T05:51:38.073Z,18.03
2019-02-23T05:54:11.650Z,18.03
2019-02-23T05:56:54.593Z,17.27
2019-02-23T05:59:37.352Z,17.53
2019-02-23T06:02:20.982Z,17.40
2019-02-23T06:05:04.472Z,16.93
2019-02-23T06:07:47.985Z,18.70
2019-02-23T06:10:31.472Z,17.83
2019-02-23T06:13:14.565Z,18.17
2019-02-23T06:15:57.737Z,17.87
2019-02-23T06:18:40.820Z,18.23
2019-02-23T06:21:23.792Z,18.10
2019-02-23T06:24:06.842Z,17.43
2019-02-23T06:26:50.348Z,18.53
2019-02-23T06:29:34.028Z,19.00
2019-02-23T06:32:15.682Z,18.80
2019-02-23T06:34:58.761Z,17.43
2019-02-23T06:37:41.676Z,18.27
2019-02-23T06:40:23.209Z,18.43
2019-02-23T06:43:06.066Z,19.17
2019-02-23T06:45:49.315Z,17.93
2019-02-23T06:48:32.451Z,18.20
2019-02-23T06:51:15.582Z,19.17
2019-02-23T06:53:58.112Z,18.10
2019-02-23T06:56:41.494Z,17.13
2019-02-23T06:59:24.729Z,18.00
2019-02-23T07:02:07.841Z,18.50
2019-02-23T07:04:51.355Z,18.17
2019-02-23T07:07:32.997Z,17.97
2019-02-23T07:10:14.649Z,17.53
2019-02-23T07:12:57.680Z,17.70
2019-02-23T07:15:40.950Z,18.13
2019-02-23T07:18:24.504Z,18.33
2019-02-23T07:21:07.973Z,18.83
2019-02-23T07:23:52.747Z,18.83
2019-02-23T07:26:35.547Z,18.70
2019-02-23T07:29:18.679Z,17.93
2019-02-23T07:32:03.246Z,18.07
2019-02-23T07:34:46.536Z,17.73
2019-02-23T07:37:29.323Z,18.67
2019-02-23T07:40:12.532Z,18.43
2019-02-23T07:42:55.816Z,19.00
2019-02-23T07:45:40.137Z,18.90
2019-02-23T07:48:22.946Z,18.20
2019-02-23T07:51:05.982Z,18.27
2019-02-23T07:53:48.714Z,18.33
2019-02-23T07:56:32.368Z,18.20
2019-02-23T07:59:16.881Z,17.03
2019-02-23T08:01:59.913Z,19.10
2019-02-23T08:04:44.373Z,16.90
2019-02-23T08:07:27.676Z,17.93
2019-02-23T08:10:10.355Z,16.70
2019-02-23T08:12:50.448Z,17.47
2019-02-23T08:15:40.050Z,17.50
2019-02-23T08:18:22.522Z,16.93
2019-02-23T08:21:05.770Z,16.50
2019-02-23T08:23:48.828Z,16.93
2019-02-23T08:26:32.356Z,17.07
2019-02-23T08:29:15.446Z,17.30
2019-02-23T08:31:59.443Z,17.53
2019-02-23T08:34:42.735Z,17.43
2019-02-23T08:37:24.235Z,17.00
2019-02-23T08:40:07.508Z,16.73
2019-02-23T08:42:50.357Z,17.73
2019-02-23T08:45:33.356Z,16.87
2019-02-23T08:48:16.333Z,16.10
2019-02-23T08:50:59.510Z,17.63
2019-02-23T08:53:42.592Z,17.27
2019-02-23T08:56:25.651Z,16.50
2019-02-23T08:59:08.532Z,16.20
2019-02-23T09:01:52.425Z,15.57
2019-02-23T09:04:35.829Z,15.87
2019-02-23T09:07:19.041Z,16.43
2019-02-23T09:10:01.813Z,15.70
2019-02-23T09:12:47.697Z,15.53
2019-02-23T09:15:31.252Z,15.20
2019-02-23T09:18:14.570Z,15.80
2019-02-23T09:20:58.074Z,15.60
2019-02-23T09:23:41.241Z,15.37
2019-02-23T09:26:24.752Z,14.80
2019-02-23T09:29:08.068Z,14.93
2019-02-23T09:31:51.484Z,14.43
2019-02-23T09:34:34.843Z,14.20
2019-02-23T09:37:17.716Z,15.30
2019-02-23T09:40:00.470Z,15.40
2019-02-23T09:42:44.528Z,14.03
2019-02-23T09:45:27.321Z,15.17
2019-02-23T09:48:10.826Z,14.40
2019-02-23T09:50:53.921Z,14.27
2019-02-23T09:53:36.869Z,14.70
2019-02-23T09:56:20.373Z,14.53
2019-02-23T09:59:03.527Z,14.13
2019-02-23T10:01:46.685Z,14.03
2019-02-23T10:04:30.273Z,15.07
2019-02-23T10:07:13.305Z,13.77
2019-02-23T10:09:57.110Z,13.70
2019-02-23T10:12:42.820Z,14.40
2019-02-23T10:15:25.709Z,13.63
2019-02-23T10:18:09.324Z,14.40
2019-02-23T10:20:53.261Z,14.83
2019-02-23T10:23:36.542Z,13.63
2019-02-23T10:26:20.243Z,13.53
2019-02-23T10:29:03.817Z,13.50
2019-02-23T10:31:47.449Z,13.53
2019-02-23T10:34:30.818Z,12.30
2019-02-23T10:39:44.455Z,11.90
2019-02-23T10:42:27.635Z,11.30
2019-02-23T10:45:10.811Z,11.23
2019-02-23T10:47:53.814Z,11.10
2019-02-23T10:50:36.821Z,10.70
2019-02-23T10:53:19.598Z,10.93
2019-02-23T10:56:02.619Z,11.10
2019-02-23T10:58:46.634Z,10.80
2019-02-23T11:01:30.408Z,10.37
2019-02-23T11:04:13.210Z,10.37
2019-02-23T11:06:57.465Z,10.33
2019-02-23T11:09:41.086Z,10.80
2019-02-23T11:12:24.683Z,10.00
2019-02-23T11:15:08.150Z,10.30
2019-02-23T11:17:52.094Z,10.60
2019-02-23T11:20:38.625Z,10.20
2019-02-23T11:23:21.860Z,10.47
2019-02-23T11:26:05.042Z,10.27
2019-02-23T11:28:48.202Z,9.50
2019-02-23T11:31:32.737Z,9.90
2019-02-23T11:34:16.113Z,9.47
2019-02-23T11:36:59.550Z,9.17
2019-02-23T11:39:42.655Z,8.77
2019-02-23T11:42:26.401Z,8.67
2019-02-23T11:45:09.622Z,8.27
2019-02-23T11:47:52.267Z,8.17
2019-02-23T11:50:35.745Z,7.40
2019-02-23T11:53:18.758Z,8.03
2019-02-23T11:56:01.937Z,7.87
2019-02-23T11:58:45.124Z,8.07
2019-02-23T12:01:28.706Z,7.97
2019-02-23T12:04:11.971Z,8.47
2019-02-23T12:06:55.270Z,7.90
2019-02-23T12:09:39.179Z,8.03
2019-02-23T12:12:12.271Z,8.40
2019-02-23T12:14:44.823Z,7.63
2019-02-23T12:17:17.452Z,7.87
2019-02-23T12:19:55.260Z,8.13
2019-02-23T12:22:39.840Z,7.73
2019-02-23T12:25:23.380Z,7.77
2019-02-23T12:28:06.860Z,7.27
2019-02-23T12:30:52.380Z,7.07
2019-02-23T12:33:35.826Z,6.73
2019-02-23T12:36:21.813Z,6.73
2019-02-23T12:39:05.189Z,5.33
2019-02-23T12:41:50.413Z,6.10
2019-02-23T12:44:32.101Z,5.83
2019-02-23T12:47:15.602Z,6.17
2019-02-23T12:49:59.182Z,4.83
2019-02-23T12:52:43.118Z,5.57
2019-02-23T12:55:26.435Z,5.23
2019-02-23T12:58:10.654Z,5.97
2019-02-23T13:00:54.359Z,5.40
2019-02-23T13:03:37.946Z,5.43
2019-02-23T13:09:21.678Z,5.87
2019-02-23T13:12:04.353Z,6.10
2019-02-23T13:14:47.671Z,6.47
2019-02-23T13:17:31.016Z,6.10
2019-02-23T13:20:13.998Z,5.50
2019-02-23T13:22:59.811Z,5.30
2019-02-23T13:25:43.452Z,5.70
2019-02-23T13:28:26.626Z,5.83
2019-02-23T13:31:09.814Z,6.13
2019-02-23T13:34:13.895Z,6.27
2019-02-23T13:36:56.718Z,6.40
2019-02-23T13:39:39.493Z,7.00
2019-02-23T13:42:24.577Z,6.80
2019-02-23T13:45:36.301Z,6.53
2019-02-23T13:48:36.762Z,6.50
2019-02-23T13:51:20.166Z,7.77
2019-02-23T13:54:03.857Z,7.60
2019-02-23T13:56:47.762Z,7.07
2019-02-23T13:59:31.217Z,7.30
2019-02-23T14:02:14.661Z,7.30
2019-02-23T14:04:57.807Z,7.30
2019-02-23T14:07:47.871Z,8.27
2019-02-23T14:10:30.957Z,7.00
2019-02-23T14:13:15.281Z,7.23
2019-02-23T14:15:58.076Z,7.47
2019-02-23T14:18:41.608Z,7.93
2019-02-23T14:21:24.553Z,7.27
2019-02-23T14:24:07.822Z,7.40
2019-02-23T14:26:50.766Z,7.73
2019-02-23T14:29:33.742Z,7.50
2019-02-23T14:32:16.537Z,7.80
2019-02-23T14:34:59.521Z,7.60
2019-02-23T14:38:03.319Z,7.67
2019-02-23T14:40:59.205Z,7.17
2019-02-23T14:43:43.614Z,7.83
2019-02-23T14:46:26.330Z,7.90
2019-02-23T14:49:09.664Z,8.17
2019-02-23T14:54:44.550Z,8.30
2019-02-23T14:57:28.257Z,8.40
2019-02-23T15:00:11.031Z,9.10
2019-02-23T15:02:54.582Z,8.93
2019-02-23T15:05:37.281Z,8.77
2019-02-23T15:08:20.946Z,8.20
2019-02-23T15:11:04.498Z,8.87
2019-02-23T15:13:47.469Z,8.40
2019-02-23T15:16:31.058Z,8.23
2019-02-23T15:19:14.318Z,8.57
2019-02-23T15:21:57.410Z,8.27
2019-02-23T15:24:55.489Z,8.60
2019-02-23T15:27:39.072Z,8.47
2019-02-23T15:30:22.533Z,9.13
2019-02-23T15:33:05.630Z,8.33
2019-02-23T15:35:52.141Z,8.37
2019-02-23T15:38:48.804Z,8.77
2019-02-23T15:41:32.282Z,7.93
2019-02-23T15:44:15.936Z,8.67
2019-02-23T15:46:59.314Z,8.30
2019-02-23T15:49:36.043Z,9.10
2019-02-23T15:52:18.957Z,8.80
2019-02-23T15:55:02.607Z,8.73
2019-02-23T15:57:46.298Z,9.20
2019-02-23T16:00:29.646Z,9.27
2019-02-23T16:03:11.970Z,9.23
2019-02-23T16:05:54.971Z,9.30
2019-02-23T16:08:38.111Z,9.10
2019-02-23T16:11:21.339Z,8.90
2019-02-23T16:14:04.241Z,9.17
2019-02-23T16:16:47.352Z,9.83
2019-02-23T16:19:30.433Z,9.83
2019-02-23T16:22:13.982Z,9.60
2019-02-23T16:24:57.226Z,9.60
2019-02-23T16:27:38.905Z,9.47
2019-02-23T16:30:22.130Z,9.60
2019-02-23T16:33:05.262Z,9.87
2019-02-23T16:35:48.134Z,9.83
2019-02-23T16:38:31.224Z,10.20
2019-02-23T16:41:14.674Z,10.40
2019-02-23T16:43:57.793Z,10.10
2019-02-23T16:46:40.626Z,10.70
2019-02-23T16:49:23.510Z,11.10
2019-02-23T16:52:09.178Z,10.63
2019-02-23T16:54:52.040Z,11.60
2019-02-23T16:57:35.167Z,10.93
2019-02-23T17:00:18.789Z,11.13
2019-02-23T17:03:02.513Z,13.33
2019-02-23T17:05:46.643Z,12.67
2019-02-23T17:08:31.826Z,12.50
2019-02-23T17:11:15.456Z,13.03
2019-02-23T17:14:00.670Z,13.00
2019-02-23T17:16:43.974Z,12.73
2019-02-23T17:19:27.472Z,14.83
2019-02-23T17:22:11.836Z,13.17
2019-02-23T17:24:55.287Z,12.83
2019-02-23T17:27:35.880Z,11.80
2019-02-23T17:29:59.729Z,11.20
2019-02-23T17:32:31.119Z,11.00
2019-02-23T17:35:03.547Z,11.17
2019-02-23T17:37:34.964Z,11.23
2019-02-23T17:40:18.004Z,11.50
2019-02-23T17:43:01.495Z,11.77
2019-02-23T17:45:45.958Z,11.80
2019-02-23T17:51:17.714Z,12.70
2019-02-23T17:54:01.849Z,11.93
2019-02-23T17:56:45.102Z,11.70
2019-02-23T17:59:30.468Z,11.73
2019-02-23T18:02:13.503Z,11.93
2019-02-23T18:04:56.389Z,14.33
2019-02-23T18:07:39.824Z,14.33
2019-02-23T18:10:23.531Z,14.40
2019-02-23T18:13:06.902Z,15.17
2019-02-23T18:15:50.511Z,13.53
2019-02-23T18:18:34.942Z,14.50
2019-02-23T18:21:17.993Z,13.90
2019-02-23T18:23:59.481Z,13.93
2019-02-23T18:26:42.657Z,13.73
2019-02-23T18:29:26.257Z,13.70
2019-02-23T18:32:09.366Z,13.53
2019-02-23T18:34:53.790Z,12.97
2019-02-23T18:37:36.692Z,13.57
2019-02-23T18:40:19.802Z,13.30
2019-02-23T18:43:02.917Z,12.50
2019-02-23T18:45:47.626Z,14.07
2019-02-23T18:48:31.182Z,12.83
2019-02-23T18:51:14.259Z,12.50
2019-02-23T18:53:57.874Z,12.83
2019-02-23T18:56:41.384Z,13.17
2019-02-23T18:59:24.129Z,13.00
2019-02-23T19:02:07.813Z,12.90
2019-02-23T19:04:51.337Z,13.40
2019-02-23T19:07:34.341Z,13.13
2019-02-23T19:10:17.277Z,12.90
2019-02-23T19:13:00.014Z,13.50
2019-02-23T19:15:42.999Z,12.80
2019-02-23T19:18:26.485Z,13.30
2019-02-23T19:21:09.896Z,13.60
2019-02-23T19:23:53.407Z,13.70
2019-02-23T19:26:38.426Z,13.07
2019-02-23T19:29:10.428Z,13.00
2019-02-23T19:31:41.840Z,13.07
2019-02-23T19:34:25.301Z,12.70
2019-02-23T19:37:08.486Z,13.57
2019-02-23T19:39:52.977Z,12.93
2019-02-23T19:42:36.758Z,12.67
2019-02-23T19:45:18.552Z,13.40
2019-02-23T19:48:02.093Z,13.30
2019-02-23T19:50:45.726Z,12.90
2019-02-23T19:53:28.540Z,13.10
2019-02-23T19:56:10.148Z,13.37
2019-02-23T19:58:53.174Z,12.73
2019-02-23T20:01:36.614Z,12.50
2019-02-23T20:04:19.550Z,13.87
2019-02-23T20:07:03.225Z,12.87
2019-02-23T20:09:46.628Z,12.63
2019-02-23T20:12:29.749Z,12.33
2019-02-23T20:15:13.110Z,12.90
2019-02-23T20:17:44.483Z,13.00
2019-02-23T20:20:28.121Z,13.00
2019-02-23T20:22:59.463Z,13.83
2019-02-23T20:25:30.932Z,13.40
2019-02-23T20:28:02.525Z,12.90
2019-02-23T20:30:33.932Z,12.43
2019-02-23T20:33:05.348Z,13.27
2019-02-23T20:35:40.557Z,13.57
2019-02-23T20:38:14.167Z,13.73
2019-02-23T20:40:45.704Z,13.10
2019-02-23T20:43:17.076Z,13.93
2019-02-23T20:45:48.518Z,14.37
2019-02-23T20:48:19.914Z,13.23
2019-02-23T20:50:51.314Z,13.90
2019-02-23T20:53:22.565Z,13.63
2019-02-23T20:55:53.913Z,13.90
2019-02-23T20:58:27.489Z,13.87
2019-02-23T21:00:58.906Z,14.17
2019-02-23T21:03:30.188Z,14.33
2019-02-23T21:06:01.565Z,14.80
2019-02-23T21:08:33.148Z,15.40
2019-02-23T21:11:04.640Z,14.37
2019-02-23T21:13:35.925Z,14.20
2019-02-23T21:16:07.299Z,14.23
2019-02-23T21:18:38.612Z,15.10
2019-02-23T21:21:21.862Z,15.00
2019-02-23T21:24:05.145Z,15.40
2019-02-23T21:26:47.986Z,15.87
2019-02-23T21:29:30.806Z,15.17
2019-02-23T21:32:14.212Z,15.30
2019-02-23T21:34:57.732Z,14.90
2019-02-23T21:37:40.832Z,15.00
2019-02-23T21:40:24.380Z,15.60
2019-02-23T21:43:07.526Z,15.40
2019-02-23T21:45:50.456Z,15.40
2019-02-23T21:48:33.430Z,14.83
2019-02-23T21:51:16.152Z,14.27
2019-02-23T21:53:59.189Z,14.70
2019-02-23T21:56:42.532Z,15.53
2019-02-23T21:59:25.787Z,15.40
2019-02-23T22:02:08.925Z,16.33
2019-02-23T22:04:52.175Z,16.33
2019-02-23T22:07:35.176Z,15.80
2019-02-23T22:10:18.388Z,14.83
2019-02-23T22:13:01.905Z,16.20
2019-02-23T22:15:45.346Z,16.07
2019-02-23T22:18:28.332Z,14.40
2019-02-23T22:21:09.934Z,15.57
2019-02-23T22:24:00.328Z,15.37
2019-02-23T22:26:43.152Z,14.70
2019-02-23T22:29:25.937Z,16.03
2019-02-23T22:32:09.126Z,15.80
2019-02-23T22:34:52.116Z,15.67
2019-02-23T22:37:35.272Z,15.90
2019-02-23T22:40:17.985Z,15.30
2019-02-23T22:43:01.264Z,15.10
2019-02-23T22:45:44.136Z,16.60
2019-02-23T22:48:28.458Z,16.10
2019-02-23T22:51:11.210Z,16.03
2019-02-23T22:53:54.327Z,15.90
2019-02-23T22:56:36.536Z,15.67
2019-02-23T22:59:08.815Z,15.37
2019-02-23T23:01:40.724Z,15.90
2019-02-23T23:04:13.627Z,16.20
2019-02-23T23:06:45.041Z,15.03
2019-02-23T23:09:20.324Z,14.90
2019-02-23T23:11:51.810Z,15.70
2019-02-23T23:14:34.982Z,15.93
2019-02-23T23:17:17.997Z,14.80
2019-02-23T23:20:01.017Z,15.00
2019-02-23T23:22:45.420Z,15.23
2019-02-23T23:25:28.658Z,15.77
2019-02-23T23:28:11.861Z,15.07
2019-02-23T23:30:56.024Z,16.27
2019-02-23T23:33:38.951Z,15.03
2019-02-23T23:36:22.185Z,14.60
2019-02-23T23:39:05.318Z,14.10
2019-02-23T23:41:49.981Z,14.90
2019-02-23T23:44:33.081Z,15.17
2019-02-23T23:47:16.024Z,14.77
2019-02-23T23:49:59.368Z,14.37
2019-02-23T23:52:42.984Z,15.40
2019-02-23T23:55:28.300Z,15.47
2019-02-23T23:58:11.965Z,15.80
